sensor_id;sensor_type;location;lat;lon;timestamp;P1;durP1;ratioP1;P2;durP2;ratioP2
26484;SDS011;18083;50.560;7.262;2023-11-22T00:01:52;10.30;;;5.67;;
26484;SDS011;18083;50.560;7.262;2023-11-22T00:04:16;6.37;;;5.10;;
26484;SDS011;18083;50.560;7.262;2023-11-22T00:06:44;6.70;;;5.43;;
26484;SDS011;18083;50.560;7.262;2023-11-22T00:09:11;9.23;;;5.80;;
26484;SDS011;18083;50.560;7.262;2023-11-22T00:11:39;6.17;;;4.93;;
26484;SDS011;18083;50.560;7.262;2023-11-22T00:14:06;6.37;;;4.37;;
26484;SDS011;18083;50.560;7.262;2023-11-22T00:16:34;8.53;;;5.30;;
26484;SDS011;18083;50.560;7.262;2023-11-22T00:19:03;5.90;;;4.13;;
26484;SDS011;18083;50.560;7.262;2023-11-22T00:21:31;5.60;;;4.33;;
26484;SDS011;18083;50.560;7.262;2023-11-22T00:23:58;7.33;;;5.17;;
26484;SDS011;18083;50.560;7.262;2023-11-22T00:26:26;8.00;;;5.00;;
26484;SDS011;18083;50.560;7.262;2023-11-22T00:28:53;7.53;;;5.20;;
26484;SDS011;18083;50.560;7.262;2023-11-22T00:31:21;8.23;;;5.20;;
26484;SDS011;18083;50.560;7.262;2023-11-22T00:33:48;4.97;;;4.47;;
26484;SDS011;18083;50.560;7.262;2023-11-22T00:36:15;6.47;;;4.00;;
26484;SDS011;18083;50.560;7.262;2023-11-22T00:38:43;7.47;;;5.13;;
26484;SDS011;18083;50.560;7.262;2023-11-22T00:41:11;9.07;;;4.57;;
26484;SDS011;18083;50.560;7.262;2023-11-22T00:43:40;8.33;;;4.43;;
26484;SDS011;18083;50.560;7.262;2023-11-22T00:46:08;6.20;;;5.03;;
26484;SDS011;18083;50.560;7.262;2023-11-22T00:48:36;5.93;;;3.97;;
26484;SDS011;18083;50.560;7.262;2023-11-22T00:51:04;8.77;;;4.37;;
26484;SDS011;18083;50.560;7.262;2023-11-22T00:53:33;5.37;;;4.00;;
26484;SDS011;18083;50.560;7.262;2023-11-22T00:56:00;5.43;;;4.90;;
26484;SDS011;18083;50.560;7.262;2023-11-22T00:58:28;5.73;;;4.27;;
26484;SDS011;18083;50.560;7.262;2023-11-22T01:00:55;9.50;;;4.57;;
26484;SDS011;18083;50.560;7.262;2023-11-22T01:03:23;6.40;;;4.60;;
26484;SDS011;18083;50.560;7.262;2023-11-22T01:05:51;6.63;;;5.60;;
26484;SDS011;18083;50.560;7.262;2023-11-22T01:08:18;6.83;;;4.27;;
26484;SDS011;18083;50.560;7.262;2023-11-22T01:10:45;6.97;;;5.23;;
26484;SDS011;18083;50.560;7.262;2023-11-22T01:13:13;9.43;;;5.43;;
26484;SDS011;18083;50.560;7.262;2023-11-22T01:15:41;9.87;;;4.83;;
26484;SDS011;18083;50.560;7.262;2023-11-22T01:18:08;14.47;;;8.60;;
26484;SDS011;18083;50.560;7.262;2023-11-22T01:20:36;13.87;;;10.27;;
26484;SDS011;18083;50.560;7.262;2023-11-22T01:23:03;11.03;;;6.73;;
26484;SDS011;18083;50.560;7.262;2023-11-22T01:25:31;10.60;;;5.70;;
26484;SDS011;18083;50.560;7.262;2023-11-22T01:27:59;8.37;;;5.70;;
26484;SDS011;18083;50.560;7.262;2023-11-22T01:30:26;9.70;;;6.27;;
26484;SDS011;18083;50.560;7.262;2023-11-22T01:32:55;11.20;;;6.90;;
26484;SDS011;18083;50.560;7.262;2023-11-22T01:35:22;11.87;;;8.13;;
26484;SDS011;18083;50.560;7.262;2023-11-22T01:37:49;9.63;;;6.83;;
26484;SDS011;18083;50.560;7.262;2023-11-22T01:40:17;12.33;;;8.60;;
26484;SDS011;18083;50.560;7.262;2023-11-22T01:42:45;9.57;;;5.90;;
26484;SDS011;18083;50.560;7.262;2023-11-22T01:45:13;6.90;;;5.17;;
26484;SDS011;18083;50.560;7.262;2023-11-22T01:47:41;10.03;;;6.43;;
26484;SDS011;18083;50.560;7.262;2023-11-22T01:50:08;6.77;;;5.00;;
26484;SDS011;18083;50.560;7.262;2023-11-22T01:52:36;9.67;;;5.97;;
26484;SDS011;18083;50.560;7.262;2023-11-22T01:55:03;7.63;;;4.80;;
26484;SDS011;18083;50.560;7.262;2023-11-22T01:57:32;9.53;;;6.10;;
26484;SDS011;18083;50.560;7.262;2023-11-22T02:00:03;7.77;;;5.33;;
26484;SDS011;18083;50.560;7.262;2023-11-22T02:02:30;5.43;;;4.90;;
26484;SDS011;18083;50.560;7.262;2023-11-22T02:04:58;10.73;;;6.93;;
26484;SDS011;18083;50.560;7.262;2023-11-22T02:07:28;8.57;;;5.77;;
26484;SDS011;18083;50.560;7.262;2023-11-22T02:09:55;9.33;;;5.97;;
26484;SDS011;18083;50.560;7.262;2023-11-22T02:12:23;8.57;;;5.83;;
26484;SDS011;18083;50.560;7.262;2023-11-22T02:14:51;8.70;;;6.47;;
26484;SDS011;18083;50.560;7.262;2023-11-22T02:17:19;10.40;;;6.00;;
26484;SDS011;18083;50.560;7.262;2023-11-22T02:19:48;10.27;;;6.77;;
26484;SDS011;18083;50.560;7.262;2023-11-22T02:22:16;10.07;;;6.30;;
26484;SDS011;18083;50.560;7.262;2023-11-22T02:24:44;11.73;;;7.97;;
26484;SDS011;18083;50.560;7.262;2023-11-22T02:27:12;12.03;;;7.47;;
26484;SDS011;18083;50.560;7.262;2023-11-22T02:29:39;10.93;;;7.27;;
26484;SDS011;18083;50.560;7.262;2023-11-22T02:32:07;13.50;;;8.20;;
26484;SDS011;18083;50.560;7.262;2023-11-22T02:34:34;11.50;;;6.63;;
26484;SDS011;18083;50.560;7.262;2023-11-22T02:37:03;10.80;;;7.50;;
26484;SDS011;18083;50.560;7.262;2023-11-22T02:39:43;9.53;;;6.93;;
26484;SDS011;18083;50.560;7.262;2023-11-22T02:42:02;12.20;;;7.87;;
26484;SDS011;18083;50.560;7.262;2023-11-22T02:44:30;11.07;;;7.90;;
26484;SDS011;18083;50.560;7.262;2023-11-22T02:46:57;11.63;;;7.57;;
26484;SDS011;18083;50.560;7.262;2023-11-22T02:49:26;11.97;;;7.70;;
26484;SDS011;18083;50.560;7.262;2023-11-22T02:51:53;15.27;;;9.10;;
26484;SDS011;18083;50.560;7.262;2023-11-22T02:54:21;16.03;;;9.37;;
26484;SDS011;18083;50.560;7.262;2023-11-22T02:56:48;11.17;;;8.50;;
26484;SDS011;18083;50.560;7.262;2023-11-22T02:59:15;12.87;;;8.57;;
26484;SDS011;18083;50.560;7.262;2023-11-22T03:01:43;14.53;;;9.20;;
26484;SDS011;18083;50.560;7.262;2023-11-22T03:04:12;14.33;;;9.43;;
26484;SDS011;18083;50.560;7.262;2023-11-22T03:06:41;12.70;;;9.07;;
26484;SDS011;18083;50.560;7.262;2023-11-22T03:09:08;15.57;;;8.40;;
26484;SDS011;18083;50.560;7.262;2023-11-22T03:11:37;12.53;;;8.13;;
26484;SDS011;18083;50.560;7.262;2023-11-22T03:14:05;10.27;;;7.70;;
26484;SDS011;18083;50.560;7.262;2023-11-22T03:16:32;13.20;;;8.43;;
26484;SDS011;18083;50.560;7.262;2023-11-22T03:19:00;12.80;;;8.60;;
26484;SDS011;18083;50.560;7.262;2023-11-22T03:21:28;9.93;;;7.87;;
26484;SDS011;18083;50.560;7.262;2023-11-22T03:23:56;9.60;;;7.83;;
26484;SDS011;18083;50.560;7.262;2023-11-22T03:26:23;13.33;;;8.40;;
26484;SDS011;18083;50.560;7.262;2023-11-22T03:28:51;11.70;;;7.63;;
26484;SDS011;18083;50.560;7.262;2023-11-22T03:31:19;12.53;;;8.00;;
26484;SDS011;18083;50.560;7.262;2023-11-22T03:33:46;15.00;;;8.50;;
26484;SDS011;18083;50.560;7.262;2023-11-22T03:36:14;12.07;;;7.47;;
26484;SDS011;18083;50.560;7.262;2023-11-22T03:38:41;11.23;;;7.53;;
26484;SDS011;18083;50.560;7.262;2023-11-22T03:41:09;12.00;;;8.40;;
26484;SDS011;18083;50.560;7.262;2023-11-22T03:43:37;13.70;;;7.73;;
26484;SDS011;18083;50.560;7.262;2023-11-22T03:46:04;14.07;;;10.13;;
26484;SDS011;18083;50.560;7.262;2023-11-22T03:48:33;11.20;;;8.33;;
26484;SDS011;18083;50.560;7.262;2023-11-22T03:51:00;11.20;;;7.60;;
26484;SDS011;18083;50.560;7.262;2023-11-22T03:53:28;10.70;;;7.60;;
26484;SDS011;18083;50.560;7.262;2023-11-22T03:55:55;13.50;;;8.70;;
26484;SDS011;18083;50.560;7.262;2023-11-22T03:58:22;13.50;;;8.07;;
26484;SDS011;18083;50.560;7.262;2023-11-22T04:00:51;11.57;;;7.43;;
26484;SDS011;18083;50.560;7.262;2023-11-22T04:03:18;9.73;;;7.43;;
26484;SDS011;18083;50.560;7.262;2023-11-22T04:05:46;10.27;;;7.13;;
26484;SDS011;18083;50.560;7.262;2023-11-22T04:08:16;12.57;;;8.30;;
26484;SDS011;18083;50.560;7.262;2023-11-22T04:10:43;9.67;;;7.70;;
26484;SDS011;18083;50.560;7.262;2023-11-22T04:13:11;13.63;;;8.77;;
26484;SDS011;18083;50.560;7.262;2023-11-22T04:15:39;15.60;;;9.80;;
26484;SDS011;18083;50.560;7.262;2023-11-22T04:18:06;10.50;;;8.07;;
26484;SDS011;18083;50.560;7.262;2023-11-22T04:20:34;12.27;;;8.00;;
26484;SDS011;18083;50.560;7.262;2023-11-22T04:23:01;14.17;;;8.37;;
26484;SDS011;18083;50.560;7.262;2023-11-22T04:28:15;22.40;;;13.23;;
26484;SDS011;18083;50.560;7.262;2023-11-22T04:30:44;17.07;;;12.73;;
26484;SDS011;18083;50.560;7.262;2023-11-22T04:33:11;17.80;;;11.90;;
26484;SDS011;18083;50.560;7.262;2023-11-22T04:35:38;13.07;;;9.07;;
26484;SDS011;18083;50.560;7.262;2023-11-22T04:38:08;11.40;;;8.43;;
26484;SDS011;18083;50.560;7.262;2023-11-22T04:40:35;13.20;;;8.30;;
26484;SDS011;18083;50.560;7.262;2023-11-22T04:43:02;9.67;;;6.97;;
26484;SDS011;18083;50.560;7.262;2023-11-22T04:45:30;11.80;;;8.27;;
26484;SDS011;18083;50.560;7.262;2023-11-22T04:47:57;12.40;;;7.77;;
26484;SDS011;18083;50.560;7.262;2023-11-22T04:50:24;12.13;;;7.67;;
26484;SDS011;18083;50.560;7.262;2023-11-22T04:52:52;10.93;;;7.37;;
26484;SDS011;18083;50.560;7.262;2023-11-22T04:55:19;9.27;;;7.27;;
26484;SDS011;18083;50.560;7.262;2023-11-22T04:57:46;12.07;;;7.40;;
26484;SDS011;18083;50.560;7.262;2023-11-22T05:00:14;13.37;;;7.80;;
26484;SDS011;18083;50.560;7.262;2023-11-22T05:02:41;9.83;;;6.77;;
26484;SDS011;18083;50.560;7.262;2023-11-22T05:05:09;13.50;;;8.00;;
26484;SDS011;18083;50.560;7.262;2023-11-22T05:07:38;11.00;;;7.20;;
26484;SDS011;18083;50.560;7.262;2023-11-22T05:10:05;10.90;;;7.57;;
26484;SDS011;18083;50.560;7.262;2023-11-22T05:12:36;7.33;;;6.33;;
26484;SDS011;18083;50.560;7.262;2023-11-22T05:15:04;15.63;;;7.83;;
26484;SDS011;18083;50.560;7.262;2023-11-22T05:17:31;13.70;;;7.40;;
26484;SDS011;18083;50.560;7.262;2023-11-22T05:19:58;8.63;;;6.17;;
26484;SDS011;18083;50.560;7.262;2023-11-22T05:22:26;9.20;;;7.07;;
26484;SDS011;18083;50.560;7.262;2023-11-22T05:24:53;10.33;;;7.40;;
26484;SDS011;18083;50.560;7.262;2023-11-22T05:27:20;13.87;;;7.50;;
26484;SDS011;18083;50.560;7.262;2023-11-22T05:29:48;8.70;;;6.17;;
26484;SDS011;18083;50.560;7.262;2023-11-22T05:32:15;9.83;;;6.93;;
26484;SDS011;18083;50.560;7.262;2023-11-22T05:34:43;9.90;;;6.90;;
26484;SDS011;18083;50.560;7.262;2023-11-22T05:37:10;7.00;;;6.30;;
26484;SDS011;18083;50.560;7.262;2023-11-22T05:39:38;10.83;;;6.30;;
26484;SDS011;18083;50.560;7.262;2023-11-22T05:42:05;10.53;;;7.07;;
26484;SDS011;18083;50.560;7.262;2023-11-22T05:44:33;13.53;;;8.10;;
26484;SDS011;18083;50.560;7.262;2023-11-22T05:47:00;9.67;;;6.83;;
26484;SDS011;18083;50.560;7.262;2023-11-22T05:49:27;8.20;;;5.43;;
26484;SDS011;18083;50.560;7.262;2023-11-22T05:51:55;12.30;;;6.00;;
26484;SDS011;18083;50.560;7.262;2023-11-22T05:54:22;10.10;;;6.57;;
26484;SDS011;18083;50.560;7.262;2023-11-22T05:56:50;8.90;;;5.97;;
26484;SDS011;18083;50.560;7.262;2023-11-22T05:59:17;8.07;;;6.33;;
26484;SDS011;18083;50.560;7.262;2023-11-22T06:01:44;10.90;;;6.20;;
26484;SDS011;18083;50.560;7.262;2023-11-22T06:04:12;12.73;;;6.60;;
26484;SDS011;18083;50.560;7.262;2023-11-22T06:06:39;7.00;;;5.13;;
26484;SDS011;18083;50.560;7.262;2023-11-22T06:09:06;7.60;;;5.03;;
26484;SDS011;18083;50.560;7.262;2023-11-22T06:11:34;8.73;;;4.60;;
26484;SDS011;18083;50.560;7.262;2023-11-22T06:14:01;6.33;;;3.73;;
26484;SDS011;18083;50.560;7.262;2023-11-22T06:16:28;9.80;;;6.13;;
26484;SDS011;18083;50.560;7.262;2023-11-22T06:18:56;6.23;;;4.00;;
26484;SDS011;18083;50.560;7.262;2023-11-22T06:21:23;11.03;;;4.60;;
26484;SDS011;18083;50.560;7.262;2023-11-22T06:23:53;6.40;;;4.90;;
26484;SDS011;18083;50.560;7.262;2023-11-22T06:26:22;10.40;;;5.27;;
26484;SDS011;18083;50.560;7.262;2023-11-22T06:28:49;8.93;;;6.47;;
26484;SDS011;18083;50.560;7.262;2023-11-22T06:31:16;14.30;;;6.37;;
26484;SDS011;18083;50.560;7.262;2023-11-22T06:33:44;13.13;;;7.27;;
26484;SDS011;18083;50.560;7.262;2023-11-22T06:36:11;9.40;;;6.20;;
26484;SDS011;18083;50.560;7.262;2023-11-22T06:38:40;9.97;;;6.00;;
26484;SDS011;18083;50.560;7.262;2023-11-22T06:41:08;15.00;;;7.40;;
26484;SDS011;18083;50.560;7.262;2023-11-22T06:43:35;15.13;;;5.87;;
26484;SDS011;18083;50.560;7.262;2023-11-22T06:46:03;9.30;;;6.53;;
26484;SDS011;18083;50.560;7.262;2023-11-22T06:48:32;11.37;;;6.80;;
26484;SDS011;18083;50.560;7.262;2023-11-22T06:51:00;8.23;;;5.03;;
26484;SDS011;18083;50.560;7.262;2023-11-22T06:53:27;14.83;;;6.37;;
26484;SDS011;18083;50.560;7.262;2023-11-22T06:55:54;9.87;;;5.90;;
26484;SDS011;18083;50.560;7.262;2023-11-22T06:58:22;7.93;;;5.77;;
26484;SDS011;18083;50.560;7.262;2023-11-22T07:00:49;11.10;;;6.00;;
26484;SDS011;18083;50.560;7.262;2023-11-22T07:03:16;9.53;;;6.10;;
26484;SDS011;18083;50.560;7.262;2023-11-22T07:05:43;10.97;;;4.87;;
26484;SDS011;18083;50.560;7.262;2023-11-22T07:08:11;6.47;;;5.10;;
26484;SDS011;18083;50.560;7.262;2023-11-22T07:10:39;11.03;;;6.43;;
26484;SDS011;18083;50.560;7.262;2023-11-22T07:13:06;11.83;;;6.10;;
26484;SDS011;18083;50.560;7.262;2023-11-22T07:15:34;9.10;;;5.80;;
26484;SDS011;18083;50.560;7.262;2023-11-22T07:18:01;10.30;;;5.87;;
26484;SDS011;18083;50.560;7.262;2023-11-22T07:20:29;10.63;;;6.07;;
26484;SDS011;18083;50.560;7.262;2023-11-22T07:22:57;8.80;;;6.20;;
26484;SDS011;18083;50.560;7.262;2023-11-22T07:25:26;9.10;;;5.63;;
26484;SDS011;18083;50.560;7.262;2023-11-22T07:27:55;11.80;;;5.87;;
26484;SDS011;18083;50.560;7.262;2023-11-22T07:30:22;10.87;;;6.20;;
26484;SDS011;18083;50.560;7.262;2023-11-22T07:32:50;10.90;;;6.50;;
26484;SDS011;18083;50.560;7.262;2023-11-22T07:35:18;9.00;;;6.07;;
26484;SDS011;18083;50.560;7.262;2023-11-22T07:37:46;9.73;;;5.57;;
26484;SDS011;18083;50.560;7.262;2023-11-22T07:40:14;9.07;;;6.17;;
26484;SDS011;18083;50.560;7.262;2023-11-22T07:42:41;10.83;;;5.30;;
26484;SDS011;18083;50.560;7.262;2023-11-22T07:45:10;7.57;;;5.73;;
26484;SDS011;18083;50.560;7.262;2023-11-22T07:47:39;5.33;;;3.87;;
26484;SDS011;18083;50.560;7.262;2023-11-22T07:50:08;6.17;;;4.23;;
26484;SDS011;18083;50.560;7.262;2023-11-22T07:52:35;10.83;;;4.43;;
26484;SDS011;18083;50.560;7.262;2023-11-22T07:55:04;4.63;;;3.40;;
26484;SDS011;18083;50.560;7.262;2023-11-22T07:57:34;4.43;;;3.70;;
26484;SDS011;18083;50.560;7.262;2023-11-22T08:00:01;7.10;;;5.27;;
26484;SDS011;18083;50.560;7.262;2023-11-22T08:02:30;6.00;;;4.20;;
26484;SDS011;18083;50.560;7.262;2023-11-22T08:04:58;4.87;;;4.37;;
26484;SDS011;18083;50.560;7.262;2023-11-22T08:07:27;7.33;;;3.90;;
26484;SDS011;18083;50.560;7.262;2023-11-22T08:09:55;4.43;;;3.13;;
26484;SDS011;18083;50.560;7.262;2023-11-22T08:12:22;5.20;;;3.53;;
26484;SDS011;18083;50.560;7.262;2023-11-22T08:14:49;4.60;;;3.50;;
26484;SDS011;18083;50.560;7.262;2023-11-22T08:17:18;8.33;;;3.53;;
26484;SDS011;18083;50.560;7.262;2023-11-22T08:19:45;3.03;;;2.73;;
26484;SDS011;18083;50.560;7.262;2023-11-22T08:22:14;3.63;;;3.20;;
26484;SDS011;18083;50.560;7.262;2023-11-22T08:24:42;10.63;;;6.37;;
26484;SDS011;18083;50.560;7.262;2023-11-22T08:27:10;4.87;;;3.60;;
26484;SDS011;18083;50.560;7.262;2023-11-22T08:29:38;6.77;;;3.10;;
26484;SDS011;18083;50.560;7.262;2023-11-22T08:32:06;3.10;;;2.77;;
26484;SDS011;18083;50.560;7.262;2023-11-22T08:34:33;4.80;;;3.57;;
26484;SDS011;18083;50.560;7.262;2023-11-22T08:37:00;4.33;;;2.97;;
26484;SDS011;18083;50.560;7.262;2023-11-22T08:39:28;3.97;;;2.77;;
26484;SDS011;18083;50.560;7.262;2023-11-22T08:41:56;4.67;;;2.70;;
26484;SDS011;18083;50.560;7.262;2023-11-22T08:44:24;3.27;;;2.80;;
26484;SDS011;18083;50.560;7.262;2023-11-22T08:49:43;4.33;;;3.10;;
26484;SDS011;18083;50.560;7.262;2023-11-22T08:52:10;3.50;;;2.93;;
26484;SDS011;18083;50.560;7.262;2023-11-22T08:54:38;3.17;;;2.57;;
26484;SDS011;18083;50.560;7.262;2023-11-22T08:57:06;2.70;;;2.33;;
26484;SDS011;18083;50.560;7.262;2023-11-22T08:59:34;5.37;;;2.30;;
26484;SDS011;18083;50.560;7.262;2023-11-22T09:02:04;4.27;;;2.77;;
26484;SDS011;18083;50.560;7.262;2023-11-22T09:04:33;3.30;;;2.13;;
26484;SDS011;18083;50.560;7.262;2023-11-22T09:07:01;3.70;;;2.30;;
26484;SDS011;18083;50.560;7.262;2023-11-22T09:09:29;3.10;;;2.40;;
26484;SDS011;18083;50.560;7.262;2023-11-22T09:11:57;5.10;;;2.87;;
26484;SDS011;18083;50.560;7.262;2023-11-22T09:14:25;3.03;;;2.27;;
26484;SDS011;18083;50.560;7.262;2023-11-22T09:16:53;3.97;;;2.10;;
26484;SDS011;18083;50.560;7.262;2023-11-22T09:19:21;4.60;;;2.27;;
26484;SDS011;18083;50.560;7.262;2023-11-22T09:21:49;3.30;;;1.77;;
26484;SDS011;18083;50.560;7.262;2023-11-22T09:24:17;4.00;;;2.10;;
26484;SDS011;18083;50.560;7.262;2023-11-22T09:26:45;4.80;;;2.60;;
26484;SDS011;18083;50.560;7.262;2023-11-22T09:29:12;2.30;;;1.87;;
26484;SDS011;18083;50.560;7.262;2023-11-22T09:31:40;1.57;;;1.40;;
26484;SDS011;18083;50.560;7.262;2023-11-22T09:34:12;1.50;;;1.30;;
26484;SDS011;18083;50.560;7.262;2023-11-22T09:36:39;1.37;;;1.27;;
26484;SDS011;18083;50.560;7.262;2023-11-22T09:39:07;4.40;;;1.23;;
26484;SDS011;18083;50.560;7.262;2023-11-22T09:41:35;1.40;;;1.30;;
26484;SDS011;18083;50.560;7.262;2023-11-22T09:44:02;1.40;;;1.10;;
26484;SDS011;18083;50.560;7.262;2023-11-22T09:46:31;1.60;;;1.50;;
26484;SDS011;18083;50.560;7.262;2023-11-22T09:49:00;0.70;;;0.63;;
26484;SDS011;18083;50.560;7.262;2023-11-22T09:51:29;1.73;;;1.20;;
26484;SDS011;18083;50.560;7.262;2023-11-22T09:53:58;0.73;;;0.70;;
26484;SDS011;18083;50.560;7.262;2023-11-22T09:56:28;1.63;;;1.20;;
26484;SDS011;18083;50.560;7.262;2023-11-22T09:58:57;1.40;;;1.00;;
26484;SDS011;18083;50.560;7.262;2023-11-22T10:01:26;1.10;;;0.90;;
26484;SDS011;18083;50.560;7.262;2023-11-22T10:03:54;1.33;;;1.23;;
26484;SDS011;18083;50.560;7.262;2023-11-22T10:06:22;2.23;;;1.03;;
26484;SDS011;18083;50.560;7.262;2023-11-22T10:08:49;1.70;;;1.27;;
26484;SDS011;18083;50.560;7.262;2023-11-22T10:11:19;1.30;;;1.20;;
26484;SDS011;18083;50.560;7.262;2023-11-22T10:13:49;2.90;;;1.50;;
26484;SDS011;18083;50.560;7.262;2023-11-22T10:16:17;2.43;;;1.40;;
26484;SDS011;18083;50.560;7.262;2023-11-22T10:18:46;4.23;;;1.33;;
26484;SDS011;18083;50.560;7.262;2023-11-22T10:23:48;2.17;;;1.00;;
26484;SDS011;18083;50.560;7.262;2023-11-22T10:34:44;2.17;;;1.10;;
26484;SDS011;18083;50.560;7.262;2023-11-22T10:37:13;10.07;;;1.60;;
26484;SDS011;18083;50.560;7.262;2023-11-22T10:47:48;1.57;;;1.10;;
26484;SDS011;18083;50.560;7.262;2023-11-22T10:50:23;2.97;;;0.83;;
26484;SDS011;18083;50.560;7.262;2023-11-22T10:55:40;1.07;;;0.90;;
26484;SDS011;18083;50.560;7.262;2023-11-22T11:01:39;4.37;;;1.30;;
26484;SDS011;18083;50.560;7.262;2023-11-22T11:09:18;2.23;;;1.60;;
26484;SDS011;18083;50.560;7.262;2023-11-22T11:11:47;1.60;;;1.03;;
26484;SDS011;18083;50.560;7.262;2023-11-22T11:14:15;1.20;;;0.97;;
26484;SDS011;18083;50.560;7.262;2023-11-22T11:16:43;1.03;;;0.70;;
26484;SDS011;18083;50.560;7.262;2023-11-22T11:19:16;9.30;;;2.00;;
26484;SDS011;18083;50.560;7.262;2023-11-22T11:21:55;0.83;;;0.83;;
26484;SDS011;18083;50.560;7.262;2023-11-22T11:24:47;1.53;;;1.17;;
26484;SDS011;18083;50.560;7.262;2023-11-22T11:36:08;1.43;;;1.13;;
26484;SDS011;18083;50.560;7.262;2023-11-22T11:38:37;1.33;;;1.23;;
26484;SDS011;18083;50.560;7.262;2023-11-22T11:41:11;1.67;;;1.27;;
26484;SDS011;18083;50.560;7.262;2023-11-22T11:43:46;1.27;;;1.10;;
26484;SDS011;18083;50.560;7.262;2023-11-22T11:46:15;5.20;;;0.80;;
26484;SDS011;18083;50.560;7.262;2023-11-22T11:48:49;1.90;;;0.90;;
26484;SDS011;18083;50.560;7.262;2023-11-22T11:51:26;1.40;;;1.10;;
26484;SDS011;18083;50.560;7.262;2023-11-22T11:54:01;1.27;;;0.77;;
26484;SDS011;18083;50.560;7.262;2023-11-22T11:56:36;2.63;;;0.83;;
26484;SDS011;18083;50.560;7.262;2023-11-22T11:59:06;0.90;;;0.90;;
26484;SDS011;18083;50.560;7.262;2023-11-22T12:01:33;1.17;;;1.07;;
26484;SDS011;18083;50.560;7.262;2023-11-22T12:04:01;2.73;;;1.20;;
26484;SDS011;18083;50.560;7.262;2023-11-22T12:06:32;0.80;;;0.80;;
26484;SDS011;18083;50.560;7.262;2023-11-22T12:09:00;5.00;;;1.10;;
26484;SDS011;18083;50.560;7.262;2023-11-22T12:11:30;0.90;;;0.90;;
26484;SDS011;18083;50.560;7.262;2023-11-22T12:14:00;3.47;;;0.90;;
26484;SDS011;18083;50.560;7.262;2023-11-22T12:16:33;0.73;;;0.73;;
26484;SDS011;18083;50.560;7.262;2023-11-22T12:19:03;1.20;;;0.90;;
26484;SDS011;18083;50.560;7.262;2023-11-22T12:26:48;2.70;;;1.00;;
26484;SDS011;18083;50.560;7.262;2023-11-22T12:32:05;1.20;;;1.10;;
26484;SDS011;18083;50.560;7.262;2023-11-22T12:40:19;1.45;;;1.17;;
26484;SDS011;18083;50.560;7.262;2023-11-22T12:48:57;0.87;;;0.83;;
26484;SDS011;18083;50.560;7.262;2023-11-22T13:00:10;1.25;;;0.80;;
26484;SDS011;18083;50.560;7.262;2023-11-22T13:02:43;1.15;;;1.00;;
26484;SDS011;18083;50.560;7.262;2023-11-22T13:05:15;1.62;;;1.02;;
26484;SDS011;18083;50.560;7.262;2023-11-22T13:07:41;2.25;;;1.35;;
26484;SDS011;18083;50.560;7.262;2023-11-22T13:10:17;1.35;;;1.25;;
26484;SDS011;18083;50.560;7.262;2023-11-22T13:12:45;1.20;;;1.10;;
26484;SDS011;18083;50.560;7.262;2023-11-22T13:17:55;1.02;;;0.88;;
26484;SDS011;18083;50.560;7.262;2023-11-22T13:23:01;1.12;;;1.02;;
26484;SDS011;18083;50.560;7.262;2023-11-22T13:25:38;2.45;;;1.27;;
26484;SDS011;18083;50.560;7.262;2023-11-22T13:28:11;2.25;;;0.90;;
26484;SDS011;18083;50.560;7.262;2023-11-22T13:30:40;1.93;;;1.43;;
26484;SDS011;18083;50.560;7.262;2023-11-22T13:33:15;1.37;;;1.23;;
26484;SDS011;18083;50.560;7.262;2023-11-22T13:35:38;1.10;;;1.00;;
26484;SDS011;18083;50.560;7.262;2023-11-22T13:38:09;4.40;;;1.10;;
26484;SDS011;18083;50.560;7.262;2023-11-22T13:43:11;1.30;;;1.00;;
26484;SDS011;18083;50.560;7.262;2023-11-22T13:45:42;0.97;;;0.93;;
26484;SDS011;18083;50.560;7.262;2023-11-22T13:48:41;0.90;;;0.83;;
26484;SDS011;18083;50.560;7.262;2023-11-22T13:51:29;1.77;;;1.20;;
26484;SDS011;18083;50.560;7.262;2023-11-22T13:54:03;2.50;;;1.10;;
26484;SDS011;18083;50.560;7.262;2023-11-22T13:59:05;6.07;;;2.03;;
26484;SDS011;18083;50.560;7.262;2023-11-22T14:01:44;1.27;;;1.17;;
26484;SDS011;18083;50.560;7.262;2023-11-22T14:04:12;1.90;;;1.10;;
26484;SDS011;18083;50.560;7.262;2023-11-22T14:06:52;1.13;;;1.03;;
26484;SDS011;18083;50.560;7.262;2023-11-22T14:09:11;3.17;;;0.90;;
26484;SDS011;18083;50.560;7.262;2023-11-22T14:11:42;1.00;;;1.00;;
26484;SDS011;18083;50.560;7.262;2023-11-22T14:14:19;4.87;;;1.00;;
26484;SDS011;18083;50.560;7.262;2023-11-22T14:16:47;2.13;;;1.30;;
26484;SDS011;18083;50.560;7.262;2023-11-22T14:19:15;1.53;;;1.10;;
26484;SDS011;18083;50.560;7.262;2023-11-22T14:21:42;10.70;;;2.13;;
26484;SDS011;18083;50.560;7.262;2023-11-22T14:24:10;3.77;;;0.97;;
26484;SDS011;18083;50.560;7.262;2023-11-22T14:26:38;1.17;;;0.93;;
26484;SDS011;18083;50.560;7.262;2023-11-22T14:29:06;2.77;;;1.20;;
26484;SDS011;18083;50.560;7.262;2023-11-22T14:31:34;0.87;;;0.87;;
26484;SDS011;18083;50.560;7.262;2023-11-22T14:34:01;1.77;;;1.10;;
26484;SDS011;18083;50.560;7.262;2023-11-22T14:36:30;2.20;;;0.93;;
26484;SDS011;18083;50.560;7.262;2023-11-22T14:38:58;4.57;;;1.63;;
26484;SDS011;18083;50.560;7.262;2023-11-22T14:41:25;1.63;;;1.07;;
26484;SDS011;18083;50.560;7.262;2023-11-22T14:43:54;1.40;;;0.90;;
26484;SDS011;18083;50.560;7.262;2023-11-22T14:46:21;0.90;;;0.90;;
26484;SDS011;18083;50.560;7.262;2023-11-22T14:48:49;1.47;;;1.30;;
26484;SDS011;18083;50.560;7.262;2023-11-22T14:51:17;6.87;;;1.03;;
26484;SDS011;18083;50.560;7.262;2023-11-22T14:53:44;0.80;;;0.60;;
26484;SDS011;18083;50.560;7.262;2023-11-22T14:56:12;6.13;;;1.47;;
26484;SDS011;18083;50.560;7.262;2023-11-22T14:58:39;1.37;;;1.03;;
26484;SDS011;18083;50.560;7.262;2023-11-22T15:01:06;2.30;;;0.90;;
26484;SDS011;18083;50.560;7.262;2023-11-22T15:03:35;2.30;;;1.50;;
26484;SDS011;18083;50.560;7.262;2023-11-22T15:06:02;1.13;;;0.97;;
26484;SDS011;18083;50.560;7.262;2023-11-22T15:08:31;2.10;;;1.10;;
26484;SDS011;18083;50.560;7.262;2023-11-22T15:10:59;4.27;;;1.27;;
26484;SDS011;18083;50.560;7.262;2023-11-22T15:13:27;1.07;;;1.00;;
26484;SDS011;18083;50.560;7.262;2023-11-22T15:15:54;2.47;;;1.10;;
26484;SDS011;18083;50.560;7.262;2023-11-22T15:18:23;6.43;;;1.60;;
26484;SDS011;18083;50.560;7.262;2023-11-22T15:20:50;5.97;;;1.90;;
26484;SDS011;18083;50.560;7.262;2023-11-22T15:23:18;2.90;;;1.70;;
26484;SDS011;18083;50.560;7.262;2023-11-22T15:25:48;1.53;;;1.10;;
26484;SDS011;18083;50.560;7.262;2023-11-22T15:28:16;2.63;;;1.50;;
26484;SDS011;18083;50.560;7.262;2023-11-22T15:30:45;2.63;;;1.20;;
26484;SDS011;18083;50.560;7.262;2023-11-22T15:33:13;2.63;;;1.30;;
26484;SDS011;18083;50.560;7.262;2023-11-22T15:35:40;5.80;;;1.30;;
26484;SDS011;18083;50.560;7.262;2023-11-22T15:38:07;9.23;;;1.67;;
26484;SDS011;18083;50.560;7.262;2023-11-22T15:40:35;5.00;;;1.70;;
26484;SDS011;18083;50.560;7.262;2023-11-22T15:43:02;5.93;;;1.30;;
26484;SDS011;18083;50.560;7.262;2023-11-22T15:45:31;2.80;;;1.63;;
26484;SDS011;18083;50.560;7.262;2023-11-22T15:47:58;17.57;;;3.47;;
26484;SDS011;18083;50.560;7.262;2023-11-22T15:50:26;5.73;;;1.87;;
26484;SDS011;18083;50.560;7.262;2023-11-22T15:52:53;11.83;;;2.33;;
26484;SDS011;18083;50.560;7.262;2023-11-22T15:55:21;4.03;;;1.80;;
26484;SDS011;18083;50.560;7.262;2023-11-22T15:57:48;4.67;;;1.57;;
26484;SDS011;18083;50.560;7.262;2023-11-22T16:00:15;19.77;;;2.50;;
26484;SDS011;18083;50.560;7.262;2023-11-22T16:02:43;11.80;;;3.60;;
26484;SDS011;18083;50.560;7.262;2023-11-22T16:05:10;3.37;;;2.57;;
26484;SDS011;18083;50.560;7.262;2023-11-22T16:07:39;8.07;;;2.87;;
26484;SDS011;18083;50.560;7.262;2023-11-22T16:10:06;9.50;;;3.23;;
26484;SDS011;18083;50.560;7.262;2023-11-22T16:12:34;16.83;;;5.10;;
26484;SDS011;18083;50.560;7.262;2023-11-22T16:15:02;10.77;;;5.33;;